Time;durP1;ratioP1;P1;durP2;ratioP2;P2;SDS_P1;SDS_P2;PMS_P1;PMS_P2;Temp;Humidity;BMP_temperature;BMP_pressure;BME280_temperature;BME280_humidity;BME280_pressure;Samples;Min_cycle;Max_cycle;Signal;HPM_P1;HPM_P2
2022/03/27 00:01:39;;;;;;;20.43;10.07;;;6.30;99.90;;;;;;4955750;28;20204;-87
2022/03/27 00:04:04;;;;;;;23.42;9.82;;;6.20;99.90;;;;;;4953609;28;20212;-86
2022/03/27 00:06:30;;;;;;;25.33;12.27;;;6.20;99.90;;;;;;4980692;28;20192;-84
2022/03/27 00:08:55;;;;;;;26.13;10.00;;;6.10;99.90;;;;;;4955853;28;20264;-84
2022/03/27 00:11:24;;;;;;;22.77;10.03;;;6.10;99.90;;;;;;4954638;28;20188;-83
2022/03/27 00:13:55;;;;;;;25.85;11.13;;;6.00;99.90;;;;;;4981360;28;20271;-82
2022/03/27 00:16:21;;;;;;;19.58;10.68;;;6.00;99.90;;;;;;4953670;28;20228;-83
2022/03/27 00:18:47;;;;;;;24.25;10.10;;;6.00;99.90;;;;;;4956498;28;20188;-81
2022/03/27 00:21:13;;;;;;;20.83;9.83;;;6.10;99.90;;;;;;4965381;28;20180;-86
2022/03/27 00:23:39;;;;;;;19.52;10.07;;;6.10;99.90;;;;;;4964655;28;20463;-84
2022/03/27 00:26:05;;;;;;;19.57;9.93;;;5.90;99.90;;;;;;4965213;28;20770;-86
2022/03/27 00:28:33;;;;;;;23.43;11.33;;;6.00;99.90;;;;;;4964122;28;20570;-84
2022/03/27 00:31:05;;;;;;;28.33;11.85;;;6.00;99.90;;;;;;4956440;28;20311;-86
2022/03/27 00:33:32;;;;;;;20.50;11.13;;;6.00;99.90;;;;;;4967856;28;20455;-83
2022/03/27 00:35:59;;;;;;;30.92;11.02;;;5.90;99.90;;;;;;4978084;28;20181;-85
2022/03/27 00:38:25;;;;;;;31.10;12.88;;;5.90;99.90;;;;;;4987472;28;20175;-80
2022/03/27 00:40:54;;;;;;;23.45;10.80;;;6.00;99.90;;;;;;4989259;28;20199;-82
2022/03/27 00:43:21;;;;;;;23.73;10.90;;;5.50;99.90;;;;;;4987671;28;20215;-80
2022/03/27 00:45:47;;;;;;;23.33;10.55;;;5.90;99.90;;;;;;4968824;28;20196;-83
2022/03/27 00:48:14;;;;;;;29.45;12.45;;;5.70;99.90;;;;;;4990676;28;20624;-85
2022/03/27 00:50:41;;;;;;;21.65;10.30;;;5.70;99.90;;;;;;4960016;28;20208;-85
2022/03/27 00:53:08;;;;;;;26.80;12.20;;;5.80;99.90;;;;;;4961393;28;20239;-85
2022/03/27 00:55:34;;;;;;;24.00;11.38;;;5.80;99.90;;;;;;4953254;28;20192;-85
2022/03/27 00:58:00;;;;;;;26.83;12.43;;;5.70;99.90;;;;;;4991997;28;20247;-84
2022/03/27 01:00:47;;;;;;;23.83;11.75;;;5.70;99.90;;;;;;4956211;28;20642;-83
2022/03/27 01:03:21;;;;;;;24.48;11.00;;;5.70;99.90;;;;;;4959546;28;20215;-83
2022/03/27 01:05:50;;;;;;;31.50;10.68;;;5.60;99.90;;;;;;4962258;28;20175;-81
2022/03/27 01:09:35;;;;;;;29.42;12.77;;;5.50;99.90;;;;;;4961329;28;20185;-81
2022/03/27 01:11:11;;;;;;;26.50;10.85;;;5.60;99.90;;;;;;4959327;28;20184;-85
2022/03/27 01:13:41;;;;;;;27.90;11.70;;;5.70;99.90;;;;;;4960277;28;20843;-84
2022/03/27 01:16:14;;;;;;;25.45;11.95;;;5.60;99.90;;;;;;4957855;28;20184;-81
2022/03/27 01:18:41;;;;;;;30.42;11.32;;;5.60;99.90;;;;;;4961301;28;20196;-86
2022/03/27 01:21:08;;;;;;;24.35;11.32;;;5.50;99.90;;;;;;4953525;28;20188;-81
2022/03/27 01:23:34;;;;;;;22.25;10.30;;;5.40;99.90;;;;;;4952402;28;20231;-83
2022/03/27 01:26:00;;;;;;;22.35;12.13;;;5.40;99.90;;;;;;4960406;28;20207;-86
2022/03/27 01:28:25;;;;;;;27.40;12.73;;;5.40;99.90;;;;;;4974931;28;20180;-81
2022/03/27 01:30:51;;;;;;;27.23;13.93;;;5.40;99.90;;;;;;4957988;28;20271;-82
2022/03/27 01:33:17;;;;;;;24.37;11.27;;;5.50;99.90;;;;;;4951689;28;20677;-81
2022/03/27 01:35:42;;;;;;;38.40;12.27;;;5.40;99.90;;;;;;4953337;28;20539;-79
2022/03/27 01:38:08;;;;;;;23.37;10.13;;;5.60;99.90;;;;;;4960360;28;20838;-83
2022/03/27 01:40:34;;;;;;;30.20;10.57;;;;;;;;;;4956025;28;20611;-83
2022/03/27 01:42:59;;;;;;;30.43;13.17;;;5.70;99.90;;;;;;4957390;28;20231;-82
2022/03/27 01:45:27;;;;;;;34.13;12.60;;;5.80;99.90;;;;;;4983755;28;20439;-85
2022/03/27 01:47:53;;;;;;;26.45;10.68;;;5.70;99.90;;;;;;4955592;28;20890;-82
2022/03/27 01:50:19;;;;;;;27.27;12.13;;;5.50;99.90;;;;;;4959776;28;20247;-81
2022/03/27 01:52:44;;;;;;;31.63;11.87;;;5.50;99.90;;;;;;4953327;28;20252;-83
2022/03/27 01:55:13;;;;;;;27.13;14.40;;;5.30;99.90;;;;;;4950725;28;20193;-84
2022/03/27 01:57:41;;;;;;;31.10;11.63;;;5.20;99.90;;;;;;4950971;28;20212;-81
2022/03/27 02:00:09;;;;;;;23.38;10.45;;;5.10;99.90;;;;;;4952378;28;20222;-83
2022/03/27 02:02:35;;;;;;;32.60;12.40;;;4.90;99.90;;;;;;4952078;28;20223;-80
2022/03/27 02:05:04;;;;;;;28.83;12.50;;;4.90;99.90;;;;;;4959811;28;20180;-80
2022/03/27 02:07:36;;;;;;;31.05;12.77;;;4.90;99.90;;;;;;4978352;28;20180;-81
2022/03/27 02:10:02;;;;;;;29.77;12.27;;;5.00;99.90;;;;;;4954216;28;20196;-82
2022/03/27 02:12:28;;;;;;;24.98;11.93;;;5.00;99.90;;;;;;4951283;28;20216;-84
2022/03/27 02:14:56;;;;;;;29.97;13.00;;;5.00;99.90;;;;;;4947947;28;20681;-84
2022/03/27 02:17:21;;;;;;;33.03;13.65;;;5.10;99.90;;;;;;4954162;28;20192;-83
2022/03/27 02:19:47;;;;;;;22.17;11.20;;;5.20;99.90;;;;;;4953128;28;21533;-84
2022/03/27 02:22:12;;;;;;;25.63;12.20;;;5.30;99.90;;;;;;4950911;28;20184;-80
2022/03/27 02:24:38;;;;;;;20.83;11.40;;;5.20;99.90;;;;;;4989343;28;20220;-84
2022/03/27 02:27:04;;;;;;;27.97;12.43;;;5.20;99.90;;;;;;4950641;28;20184;-85
2022/03/27 02:29:30;;;;;;;27.85;13.77;;;4.90;99.90;;;;;;4994726;28;20375;-85
2022/03/27 02:31:56;;;;;;;27.20;12.47;;;4.70;99.90;;;;;;4993188;28;20212;-85
2022/03/27 02:34:21;;;;;;;27.83;13.00;;;4.60;99.90;;;;;;4960891;28;20467;-85
2022/03/27 02:36:46;;;;;;;33.13;13.20;;;4.60;99.90;;;;;;4981774;28;20272;-83
2022/03/27 02:39:12;;;;;;;29.80;12.80;;;4.60;99.90;;;;;;4953503;28;20553;-86
2022/03/27 02:41:37;;;;;;;30.70;13.80;;;4.70;99.90;;;;;;4952817;28;20184;-84
2022/03/27 02:44:03;;;;;;;28.70;12.27;;;4.80;99.90;;;;;;4953818;28;20220;-84
2022/03/27 02:46:29;;;;;;;34.50;14.27;;;4.80;99.90;;;;;;4961968;28;20338;-84
2022/03/27 02:48:54;;;;;;;21.40;12.20;;;4.80;99.90;;;;;;4958439;28;20714;-85
2022/03/27 02:51:20;;;;;;;25.63;13.63;;;4.80;99.90;;;;;;4953429;28;20204;-83
2022/03/27 02:53:45;;;;;;;44.77;29.40;;;4.70;99.90;;;;;;4952061;28;20208;-81
2022/03/27 02:56:11;;;;;;;39.23;18.93;;;4.70;99.90;;;;;;4958121;28;20225;-81
2022/03/27 02:58:37;;;;;;;26.60;12.60;;;4.70;99.90;;;;;;4978773;28;20185;-79
2022/03/27 03:01:03;;;;;;;29.57;13.03;;;4.60;99.90;;;;;;4954074;28;21424;-83
2022/03/27 03:03:29;;;;;;;31.77;12.13;;;4.50;99.90;;;;;;4950851;28;20215;-86
2022/03/27 03:05:55;;;;;;;32.67;11.90;;;4.60;99.90;;;;;;4951402;28;20180;-84
2022/03/27 03:08:21;;;;;;;22.43;12.07;;;4.60;99.90;;;;;;4963772;28;20691;-82
2022/03/27 03:10:46;;;;;;;30.33;12.57;;;4.50;99.90;;;;;;4981184;28;20502;-82
2022/03/27 03:13:12;;;;;;;36.47;14.80;;;4.50;99.90;;;;;;4969988;28;20323;-84
2022/03/27 03:15:42;;;;;;;25.80;12.45;;;5.00;99.90;;;;;;4953962;28;20255;-84
2022/03/27 03:18:12;;;;;;;31.33;14.20;;;4.40;99.90;;;;;;4957578;28;20180;-84
2022/03/27 03:20:39;;;;;;;27.90;12.38;;;4.40;99.90;;;;;;4956417;28;20378;-84
2022/03/27 03:23:05;;;;;;;32.92;13.07;;;4.30;99.90;;;;;;4954088;28;20211;-84
2022/03/27 03:25:31;;;;;;;37.07;12.83;;;4.30;99.90;;;;;;4952816;28;20184;-84
2022/03/27 03:27:57;;;;;;;30.17;13.52;;;4.20;99.90;;;;;;4951330;28;20175;-84
2022/03/27 03:30:23;;;;;;;26.07;13.53;;;4.20;99.90;;;;;;4957440;28;20202;-84
2022/03/27 03:32:49;;;;;;;36.40;13.05;;;4.20;99.90;;;;;;4982899;28;20215;-80
2022/03/27 03:35:15;;;;;;;42.72;14.18;;;4.10;99.90;;;;;;4971999;28;20201;-82
2022/03/27 03:37:41;;;;;;;28.80;12.40;;;;;;;;;;4964261;28;20187;-79
2022/03/27 03:40:07;;;;;;;32.43;13.67;;;4.10;99.90;;;;;;4981586;28;20444;-79
2022/03/27 03:42:34;;;;;;;25.48;12.73;;;4.10;99.90;;;;;;4971104;28;20459;-85
2022/03/27 03:45:00;;;;;;;31.63;13.52;;;4.10;99.90;;;;;;4961521;28;20685;-87
2022/03/27 03:47:25;;;;;;;32.37;13.97;;;4.30;99.90;;;;;;4989317;28;20184;-83
2022/03/27 03:49:51;;;;;;;32.80;12.83;;;4.30;99.90;;;;;;4958641;28;20198;-80
2022/03/27 03:52:16;;;;;;;30.93;14.20;;;4.20;99.90;;;;;;4966241;28;20261;-80
2022/03/27 03:54:42;;;;;;;43.00;19.20;;;4.20;99.90;;;;;;4953659;28;20711;-84
2022/03/27 03:57:08;;;;;;;27.27;13.57;;;4.30;99.90;;;;;;4951869;28;20267;-83
2022/03/27 03:59:36;;;;;;;29.23;15.25;;;4.30;99.90;;;;;;4951807;28;20196;-82
2022/03/27 04:02:01;;;;;;;32.65;13.88;;;4.00;99.90;;;;;;4954544;28;20195;-83
2022/03/27 04:04:28;;;;;;;31.43;13.97;;;4.10;99.90;;;;;;4954191;28;20216;-83
2022/03/27 04:06:53;;;;;;;28.33;14.50;;;4.10;99.90;;;;;;4951546;28;20181;-83
2022/03/27 04:09:20;;;;;;;31.80;14.37;;;4.00;99.90;;;;;;4950443;28;20187;-85
2022/03/27 04:11:47;;;;;;;28.50;13.45;;;4.10;99.90;;;;;;4952729;28;20211;-81
2022/03/27 04:14:13;;;;;;;24.77;13.90;;;4.10;99.90;;;;;;4949562;28;20207;-82
2022/03/27 04:16:38;;;;;;;31.90;14.27;;;4.20;99.90;;;;;;4987356;28;20188;-80
2022/03/27 04:19:05;;;;;;;32.97;13.73;;;4.10;99.90;;;;;;4957867;28;20254;-83
2022/03/27 04:21:31;;;;;;;24.73;13.25;;;4.20;99.90;;;;;;4955579;28;20466;-83
2022/03/27 04:23:57;;;;;;;34.55;15.98;;;4.10;99.90;;;;;;4955055;28;20215;-84
2022/03/27 04:26:22;;;;;;;37.27;14.70;;;4.10;99.90;;;;;;4949138;28;20177;-83
2022/03/27 04:28:48;;;;;;;30.60;13.70;;;4.10;99.90;;;;;;4959053;28;20203;-82
2022/03/27 04:31:13;;;;;;;29.30;13.10;;;4.10;99.90;;;;;;4955724;28;20234;-83
2022/03/27 04:33:39;;;;;;;32.47;14.90;;;4.00;99.90;;;;;;4955282;28;20259;-84
2022/03/27 04:36:04;;;;;;;30.37;13.00;;;4.10;99.90;;;;;;4955353;28;20191;-81
2022/03/27 04:38:30;;;;;;;26.83;12.50;;;4.00;99.90;;;;;;4952374;28;20930;-85
2022/03/27 04:40:55;;;;;;;34.37;13.77;;;4.00;99.90;;;;;;4958110;28;20199;-86
2022/03/27 04:43:22;;;;;;;30.53;13.37;;;3.90;99.90;;;;;;4956316;28;20908;-81
2022/03/27 04:45:49;;;;;;;27.67;12.57;;;3.90;99.90;;;;;;4957442;28;20190;-87
2022/03/27 04:48:14;;;;;;;32.22;14.20;;;3.80;99.90;;;;;;4966964;28;20306;-84
2022/03/27 04:50:40;;;;;;;35.77;13.27;;;3.90;99.90;;;;;;4954451;28;20244;-86
2022/03/27 04:53:06;;;;;;;33.90;14.77;;;;;;;;;;4960061;28;20207;-84
2022/03/27 04:55:32;;;;;;;37.03;15.63;;;3.80;99.90;;;;;;4962272;28;20444;-85
2022/03/27 04:57:58;;;;;;;33.37;13.93;;;3.80;99.90;;;;;;4973715;28;20256;-80
2022/03/27 05:00:23;;;;;;;35.77;15.27;;;3.70;99.90;;;;;;4974953;28;20195;-81
2022/03/27 05:02:49;;;;;;;37.50;15.90;;;3.80;99.90;;;;;;4956921;28;20267;-81
2022/03/27 05:05:15;;;;;;;37.33;15.20;;;3.80;99.90;;;;;;4987982;28;20192;-79
2022/03/27 05:07:43;;;;;;;32.78;15.45;;;3.90;99.90;;;;;;4955676;28;20195;-84
2022/03/27 05:10:11;;;;;;;32.17;14.93;;;3.90;99.90;;;;;;4954327;28;20199;-84
2022/03/27 05:12:37;;;;;;;39.00;15.57;;;3.90;99.90;;;;;;4970551;28;20812;-82
2022/03/27 05:15:03;;;;;;;37.27;15.80;;;3.90;99.90;;;;;;4962268;28;20250;-86
2022/03/27 05:17:29;;;;;;;34.80;15.60;;;3.90;99.90;;;;;;4957117;28;20203;-88
2022/03/27 05:19:54;;;;;;;32.37;13.53;;;3.90;99.90;;;;;;4971716;28;20191;-82
2022/03/27 05:22:20;;;;;;;31.60;15.57;;;4.00;99.90;;;;;;4972174;28;20257;-84
2022/03/27 05:24:47;;;;;;;29.70;13.90;;;4.10;99.90;;;;;;4986558;28;20205;-83
2022/03/27 05:27:16;;;;;;;29.40;13.45;;;4.10;99.90;;;;;;4952575;28;20303;-83
2022/03/27 05:29:41;;;;;;;37.90;15.80;;;4.20;99.90;;;;;;4956417;28;20211;-84
2022/03/27 05:32:08;;;;;;;26.40;14.30;;;4.30;99.90;;;;;;4958134;28;20882;-85
2022/03/27 05:34:34;;;;;;;31.98;15.00;;;4.50;99.90;;;;;;4954294;28;20208;-86
2022/03/27 05:36:59;;;;;;;28.67;14.77;;;5.00;99.90;;;;;;4981687;28;20219;-82
2022/03/27 05:39:25;;;;;;;30.03;14.83;;;5.80;99.90;;;;;;4951125;28;20466;-83
2022/03/27 05:41:50;;;;;;;31.17;12.43;;;6.80;99.90;;;;;;4949562;28;21726;-88
2022/03/27 05:44:16;;;;;;;33.43;15.17;;;7.90;99.90;;;;;;4951069;28;20270;-83
2022/03/27 05:46:42;;;;;;;24.67;13.80;;;8.50;99.90;;;;;;4985093;28;20451;-85
2022/03/27 05:49:07;;;;;;;32.07;15.00;;;9.50;99.90;;;;;;4957647;28;20216;-85
2022/03/27 05:51:33;;;;;;;36.40;14.27;;;10.50;99.90;;;;;;4955458;28;20180;-87
2022/03/27 05:53:59;;;;;;;29.23;14.20;;;11.60;99.90;;;;;;4954628;28;20215;-86
2022/03/27 05:56:24;;;;;;;33.23;14.97;;;12.80;99.90;;;;;;4951300;28;20211;-86
2022/03/27 05:58:50;;;;;;;29.87;14.67;;;14.00;99.90;;;;;;4952446;28;20475;-84
2022/03/27 06:01:15;;;;;;;25.80;14.30;;;15.10;99.90;;;;;;4953011;28;20196;-83
2022/03/27 06:03:41;;;;;;;28.00;14.73;;;16.20;97.00;;;;;;4980968;28;20303;-84
2022/03/27 06:06:07;;;;;;;27.03;13.90;;;17.30;93.90;;;;;;4950387;28;20185;-85
2022/03/27 06:08:33;;;;;;;29.10;13.77;;;18.30;89.70;;;;;;4954246;28;20439;-85
2022/03/27 06:10:59;;;;;;;28.60;14.20;;;;;;;;;;4956395;28;20653;-86
2022/03/27 06:13:24;;;;;;;27.37;15.13;;;18.70;74.40;;;;;;4955501;28;20703;-84
2022/03/27 06:15:51;;;;;;;28.10;14.17;;;19.30;74.10;;;;;;4968004;28;20499;-84
2022/03/27 06:18:17;;;;;;;36.47;16.70;;;20.50;71.40;;;;;;4949019;28;20187;-82
2022/03/27 06:20:43;;;;;;;26.80;15.70;;;22.50;66.60;;;;;;4953936;28;20443;-81
2022/03/27 06:23:08;;;;;;;29.53;14.97;;;22.50;60.40;;;;;;4956210;28;20522;-84
2022/03/27 06:25:34;;;;;;;30.40;15.97;;;22.50;57.60;;;;;;5006908;28;20515;-81
2022/03/27 06:28:00;;;;;;;31.50;16.60;;;22.50;57.50;;;;;;4970692;28;20435;-86
2022/03/27 06:30:28;;;;;;;22.60;14.90;;;23.50;55.80;;;;;;4963159;28;20185;-85
2022/03/27 06:32:55;;;;;;;28.93;15.23;;;24.70;53.30;;;;;;4958567;28;20502;-85
2022/03/27 06:35:22;;;;;;;28.27;16.13;;;25.30;51.40;;;;;;4976111;28;20435;-85
2022/03/27 06:37:49;;;;;;;36.90;17.20;;;25.20;49.70;;;;;;4984677;28;20458;-81
2022/03/27 06:40:15;;;;;;;27.60;16.00;;;25.60;47.80;;;;;;4980201;28;20435;-79
2022/03/27 06:42:44;;;;;;;30.97;16.67;;;26.20;46.60;;;;;;4955162;28;20475;-83
2022/03/27 06:45:14;;;;;;;23.47;16.20;;;26.90;43.80;;;;;;4953089;28;20502;-81
2022/03/27 06:47:41;;;;;;;24.77;15.70;;;27.40;43.80;;;;;;4991757;28;20527;-86
2022/03/27 06:50:08;;;;;;;33.57;16.93;;;28.40;42.10;;;;;;4958922;28;20510;-80
2022/03/27 06:52:34;;;;;;;33.23;17.30;;;29.40;37.90;;;;;;4954723;28;20456;-84
2022/03/27 06:55:00;;;;;;;34.00;17.60;;;29.40;38.50;;;;;;4957063;28;21182;-81
2022/03/27 06:57:26;;;;;;;26.43;19.40;;;29.90;38.10;;;;;;4952844;28;20451;-85
2022/03/27 07:05:22;;;;;;;27.63;16.90;;;29.60;35.20;;;;;;4957786;28;20455;-85
2022/03/27 07:07:50;;;;;;;41.57;18.03;;;29.50;35.50;;;;;;4987176;28;20440;-84
2022/03/27 07:10:16;;;;;;;26.00;18.37;;;29.60;34.60;;;;;;4953265;28;20443;-80
2022/03/27 07:12:42;;;;;;;30.70;17.90;;;29.30;35.20;;;;;;4953127;28;20995;-84
2022/03/27 07:15:09;;;;;;;27.43;17.77;;;29.40;34.70;;;;;;4952165;28;21393;-83
2022/03/27 07:17:49;;;;;;;27.20;17.20;;;29.20;34.80;;;;;;4965825;28;21219;-81
2022/03/27 07:20:26;;;;;;;24.30;16.90;;;29.30;33.70;;;;;;4960028;28;20444;-86
2022/03/27 07:22:53;;;;;;;34.60;19.17;;;29.50;33.80;;;;;;4976668;28;20475;-86
2022/03/27 07:25:21;;;;;;;23.43;17.40;;;29.80;33.80;;;;;;4961602;28;20442;-84
2022/03/27 07:27:46;;;;;;;23.13;16.73;;;30.00;32.90;;;;;;4957248;28;20544;-85
2022/03/27 07:30:13;;;;;;;24.53;16.00;;;29.80;33.40;;;;;;4948630;28;20437;-87
2022/03/27 07:32:39;;;;;;;29.03;18.63;;;30.20;34.00;;;;;;4946873;28;20826;-83
2022/03/27 07:35:07;;;;;;;22.37;16.20;;;30.70;32.80;;;;;;4979622;28;20454;-89
2022/03/27 07:37:34;;;;;;;27.10;18.37;;;30.90;32.80;;;;;;4944125;28;20487;-84
2022/03/27 07:40:03;;;;;;;24.40;16.40;;;30.90;31.60;;;;;;4978241;28;20909;-84
2022/03/27 07:42:29;;;;;;;30.27;16.97;;;31.40;31.80;;;;;;4952828;28;20448;-86
2022/03/27 07:44:55;;;;;;;27.90;17.10;;;32.20;30.80;;;;;;4951547;28;20511;-83
2022/03/27 07:47:21;;;;;;;26.13;18.60;;;;;;;;;;4954650;28;20837;-86
2022/03/27 07:49:47;;;;;;;25.23;17.80;;;32.60;29.40;;;;;;4976479;28;20219;-81
2022/03/27 07:52:13;;;;;;;25.37;18.10;;;32.60;29.50;;;;;;4997157;28;20440;-83
2022/03/27 07:54:39;;;;;;;25.70;17.50;;;30.80;30.00;;;;;;4986154;28;20469;-81
2022/03/27 07:57:05;;;;;;;22.50;17.67;;;30.60;31.70;;;;;;4983841;28;20579;-83
2022/03/27 07:59:30;;;;;;;30.87;18.67;;;31.00;31.10;;;;;;4946129;28;20202;-85
2022/03/27 08:01:56;;;;;;;24.93;16.23;;;31.90;30.30;;;;;;4948573;28;20178;-84
2022/03/27 08:04:22;;;;;;;24.20;17.40;;;32.00;30.00;;;;;;4947362;28;20208;-80
2022/03/27 08:06:47;;;;;;;25.03;17.77;;;32.40;29.70;;;;;;4967864;28;20575;-81
2022/03/27 08:09:14;;;;;;;24.37;17.10;;;33.40;30.40;;;;;;4956025;28;20554;-84
2022/03/27 08:11:43;;;;;;;29.07;19.20;;;32.80;29.10;;;;;;4962458;28;20197;-85
2022/03/27 08:14:11;;;;;;;30.40;16.90;;;32.50;29.80;;;;;;4947164;28;20460;-86
2022/03/27 08:16:38;;;;;;;25.43;19.40;;;32.20;29.30;;;;;;4944281;28;20445;-82
2022/03/27 08:19:04;;;;;;;24.07;19.47;;;32.50;29.40;;;;;;4959196;28;20446;-86
2022/03/27 08:21:30;;;;;;;27.50;19.30;;;33.10;28.90;;;;;;4952617;28;21335;-83
2022/03/27 08:23:55;;;;;;;24.30;18.77;;;32.50;28.50;;;;;;4943264;28;20477;-85
2022/03/27 08:29:06;;;;;;;21.80;18.00;;;30.00;30.40;;;;;;4952848;28;20244;-85
2022/03/27 08:31:32;;;;;;;27.53;18.97;;;30.40;30.80;;;;;;4953113;28;20441;-83
2022/03/27 08:33:58;;;;;;;27.10;17.10;;;30.00;31.50;;;;;;4948716;28;20236;-85
2022/03/27 08:36:24;;;;;;;25.20;18.90;;;31.00;31.60;;;;;;4951786;28;20466;-84
2022/03/27 08:38:50;;;;;;;24.70;19.00;;;31.90;30.20;;;;;;4949152;28;20467;-83
2022/03/27 08:41:16;;;;;;;26.23;18.77;;;32.00;29.60;;;;;;4950742;28;20481;-86
2022/03/27 08:43:43;;;;;;;24.27;17.80;;;31.30;30.70;;;;;;4951304;28;20212;-85
2022/03/27 08:46:11;;;;;;;26.07;18.10;;;31.70;30.40;;;;;;4974075;28;20445;-80
2022/03/27 08:48:37;;;;;;;26.60;18.83;;;32.30;29.90;;;;;;4956943;28;20442;-85
2022/03/27 08:51:27;;;;;;;22.53;19.37;;;32.90;29.50;;;;;;4947652;28;20491;-84
2022/03/27 08:54:16;;;;;;;26.37;17.97;;;33.20;30.00;;;;;;4944356;28;20563;-83
2022/03/27 08:56:47;;;;;;;27.13;21.57;;;33.00;29.80;;;;;;4953072;28;20548;-86
2022/03/27 08:59:13;;;;;;;28.90;20.07;;;32.40;29.60;;;;;;4955184;28;20472;-82
2022/03/27 09:01:39;;;;;;;27.43;19.87;;;32.40;29.80;;;;;;4988839;28;20519;-84
2022/03/27 09:04:05;;;;;;;26.63;19.77;;;32.10;30.70;;;;;;4955067;28;20502;-86
2022/03/27 09:06:31;;;;;;;27.00;19.47;;;32.40;29.80;;;;;;4952694;28;20177;-87
2022/03/27 09:08:58;;;;;;;31.17;19.80;;;31.80;29.80;;;;;;4983618;28;20434;-86
2022/03/27 09:11:28;;;;;;;30.30;18.47;;;31.90;30.00;;;;;;4988371;28;20202;-85
2022/03/27 09:13:54;;;;;;;27.23;18.83;;;31.90;29.50;;;;;;4977859;28;20485;-84
2022/03/27 09:16:21;;;;;;;25.47;19.60;;;30.70;30.80;;;;;;4977147;28;20439;-85
2022/03/27 09:18:53;;;;;;;27.87;18.60;;;29.90;31.60;;;;;;4960799;28;20472;-84
2022/03/27 09:21:21;;;;;;;29.47;18.77;;;27.90;33.90;;;;;;4960906;28;20537;-85
2022/03/27 09:23:55;;;;;;;24.23;17.93;;;28.70;33.80;;;;;;4954316;28;20463;-86
2022/03/27 09:26:23;;;;;;;24.27;17.70;;;29.70;32.80;;;;;;4959099;28;20477;-84
2022/03/27 09:28:54;;;;;;;26.53;20.40;;;30.00;32.90;;;;;;4957503;28;20445;-84
2022/03/27 09:31:32;;;;;;;26.30;18.63;;;29.90;31.40;;;;;;4960587;28;20438;-89
2022/03/27 09:34:08;;;;;;;22.50;17.40;;;29.10;33.00;;;;;;4983759;28;20465;-83
2022/03/27 09:36:40;;;;;;;26.17;18.67;;;29.50;33.40;;;;;;4985317;28;20419;-83
2022/03/27 09:39:22;;;;;;;23.87;17.73;;;30.20;32.00;;;;;;4976817;28;20496;-87
2022/03/27 09:41:54;;;;;;;26.57;19.00;;;29.50;32.50;;;;;;4976633;28;20467;-87
2022/03/27 09:44:29;;;;;;;25.87;19.97;;;29.40;33.20;;;;;;4965095;28;20479;-86
2022/03/27 09:47:00;;;;;;;25.17;18.20;;;28.20;32.30;;;;;;4962429;28;20509;-86
2022/03/27 09:49:34;;;;;;;25.23;19.50;;;28.40;33.40;;;;;;4957323;28;20436;-85
2022/03/27 09:52:10;;;;;;;23.50;17.33;;;26.70;34.40;;;;;;4953220;28;20438;-86
2022/03/27 09:54:56;;;;;;;24.80;18.67;;;25.70;36.50;;;;;;4962448;28;20480;-86
2022/03/27 09:57:36;;;;;;;25.37;17.00;;;25.90;37.20;;;;;;4951562;28;20797;-86
2022/03/27 10:00:11;;;;;;;28.87;18.50;;;26.30;38.30;;;;;;4951359;28;20549;-83
2022/03/27 10:02:37;;;;;;;26.00;18.67;;;28.30;33.70;;;;;;4952058;28;20438;-85
2022/03/27 10:05:09;;;;;;;25.37;17.40;;;28.70;34.60;;;;;;4982604;28;20474;-85
2022/03/27 10:07:43;;;;;;;32.63;20.00;;;27.90;34.10;;;;;;4955137;28;20447;-85
2022/03/27 10:10:14;;;;;;;24.13;19.73;;;28.00;33.80;;;;;;4951135;28;20462;-86
2022/03/27 10:12:42;;;;;;;23.57;18.20;;;27.40;35.10;;;;;;4949174;28;20516;-84
2022/03/27 10:15:17;;;;;;;26.20;18.47;;;26.80;35.00;;;;;;4951816;28;20448;-83
2022/03/27 10:17:46;;;;;;;22.50;18.10;;;25.60;36.80;;;;;;4953416;28;20505;-86
2022/03/27 10:20:17;;;;;;;24.43;17.00;;;24.70;38.10;;;;;;4952825;28;21170;-82
2022/03/27 10:22:56;;;;;;;27.37;18.63;;;23.80;38.80;;;;;;4952290;28;20460;-84
2022/03/27 10:25:25;;;;;;;29.43;16.30;;;22.90;40.70;;;;;;4948706;28;20452;-85
2022/03/27 10:27:51;;;;;;;25.83;15.60;;;22.00;41.20;;;;;;4956614;28;20444;-85
2022/03/27 10:30:18;;;;;;;24.57;15.77;;;21.20;42.40;;;;;;4951810;28;20443;-85
2022/03/27 10:32:44;;;;;;;29.67;17.20;;;20.40;43.70;;;;;;4952213;28;21098;-84
2022/03/27 10:35:26;;;;;;;28.93;16.30;;;19.90;44.40;;;;;;4959658;28;20439;-83
2022/03/27 10:38:09;;;;;;;33.60;16.97;;;19.70;45.50;;;;;;4957009;28;20448;-83
2022/03/27 10:40:48;;;;;;;27.13;14.97;;;19.50;45.70;;;;;;4971325;28;21036;-81
2022/03/27 10:43:26;;;;;;;24.50;15.50;;;19.50;46.10;;;;;;4972531;28;20506;-83
2022/03/27 10:46:19;;;;;;;26.90;15.90;;;19.50;46.40;;;;;;4957989;28;20439;-84
2022/03/27 10:48:45;;;;;;;28.77;16.33;;;19.30;47.60;;;;;;4965808;28;20446;-83
2022/03/27 10:51:32;;;;;;;30.03;16.70;;;19.30;47.70;;;;;;5000597;28;20487;-83
2022/03/27 10:54:03;;;;;;;25.93;15.50;;;19.50;49.10;;;;;;4950389;28;20471;-84
2022/03/27 10:56:48;;;;;;;22.50;14.80;;;19.80;48.00;;;;;;4954075;28;20464;-85
2022/03/27 10:59:19;;;;;;;30.57;16.40;;;19.70;47.40;;;;;;4942534;28;20826;-84
2022/03/27 11:01:45;;;;;;;30.60;17.73;;;19.60;47.20;;;;;;4954074;28;20443;-82
2022/03/27 11:04:16;;;;;;;27.73;15.77;;;19.70;48.10;;;;;;4945589;28;20994;-85
2022/03/27 11:06:45;;;;;;;29.67;15.07;;;19.70;46.20;;;;;;4950082;28;20191;-83
2022/03/27 11:09:32;;;;;;;26.40;15.27;;;19.50;46.50;;;;;;4944412;28;20495;-85
2022/03/27 11:11:58;;;;;;;26.63;16.93;;;19.60;49.20;;;;;;4961630;28;20447;-83
2022/03/27 11:14:53;;;;;;;26.90;15.87;;;19.80;47.20;;;;;;4968735;28;20833;-84
2022/03/27 11:17:49;;;;;;;26.00;15.07;;;20.00;46.20;;;;;;4948121;28;20446;-84
2022/03/27 11:20:24;;;;;;;29.70;15.23;;;20.00;47.10;;;;;;4960602;28;20451;-84
2022/03/27 11:22:51;;;;;;;35.43;17.43;;;20.10;45.90;;;;;;4947835;28;20852;-83
2022/03/27 11:25:39;;;;;;;26.60;14.97;;;20.10;46.60;;;;;;4947090;28;20562;-86
2022/03/27 11:28:15;;;;;;;33.27;16.80;;;20.20;46.60;;;;;;4957899;28;20467;-84
2022/03/27 11:30:50;;;;;;;28.17;15.27;;;20.10;47.50;;;;;;4949317;28;20454;-85
2022/03/27 11:33:31;;;;;;;24.17;14.97;;;20.00;47.10;;;;;;4947859;28;20462;-83
2022/03/27 11:36:14;;;;;;;27.17;16.50;;;19.70;47.50;;;;;;4946645;28;20436;-85
2022/03/27 11:38:52;;;;;;;28.47;16.30;;;19.60;47.60;;;;;;4944245;28;20451;-86
2022/03/27 11:41:44;;;;;;;27.13;16.47;;;19.50;48.00;;;;;;4949906;28;20436;-83
2022/03/27 11:47:19;;;;;;;26.30;15.57;;;20.30;46.50;;;;;;4948945;28;20487;-83
2022/03/27 11:49:45;;;;;;;30.17;16.47;;;20.30;46.30;;;;;;4959088;28;20475;-85
2022/03/27 11:52:13;;;;;;;30.60;15.43;;;20.50;47.00;;;;;;4946973;28;20541;-83
2022/03/27 11:54:40;;;;;;;26.80;15.70;;;20.70;46.40;;;;;;4956945;28;20460;-86
2022/03/27 11:57:06;;;;;;;31.63;15.23;;;21.00;46.80;;;;;;4946995;28;20999;-87
2022/03/27 11:59:47;;;;;;;28.43;15.23;;;21.10;44.90;;;;;;4953665;28;20531;-83
2022/03/27 12:02:17;;;;;;;25.80;15.03;;;21.10;45.00;;;;;;4955806;28;20510;-85
2022/03/27 12:04:54;;;;;;;23.50;14.40;;;21.00;44.60;;;;;;4979549;28;20475;-82
2022/03/27 12:07:25;;;;;;;24.67;14.00;;;21.00;44.20;;;;;;4949590;28;20462;-86
2022/03/27 12:10:02;;;;;;;27.80;13.83;;;21.00;45.00;;;;;;4947372;28;20824;-85
2022/03/27 12:12:32;;;;;;;22.40;15.07;;;21.20;43.60;;;;;;4947486;28;20621;-84
2022/03/27 12:15:04;;;;;;;23.60;13.27;;;21.30;43.10;;;;;;4948899;28;20535;-85
2022/03/27 12:17:32;;;;;;;26.93;15.37;;;21.30;44.30;;;;;;4960837;28;20534;-85
2022/03/27 12:19:59;;;;;;;25.77;15.17;;;21.30;44.10;;;;;;4949353;28;20447;-87
2022/03/27 12:22:46;;;;;;;25.77;14.77;;;21.10;43.10;;;;;;4948294;28;20431;-85
2022/03/27 12:25:22;;;;;;;26.60;15.07;;;21.10;43.60;;;;;;4952580;28;20476;-84
2022/03/27 12:30:53;;;;;;;25.77;13.77;;;21.20;43.40;;;;;;4970448;28;20458;-82
2022/03/27 12:33:27;;;;;;;25.40;13.87;;;21.20;42.60;;;;;;4982429;28;20464;-83
2022/03/27 12:36:10;;;;;;;28.80;14.20;;;20.80;42.30;;;;;;4992937;28;20447;-87
2022/03/27 12:38:36;;;;;;;26.13;14.43;;;20.90;42.40;;;;;;4968487;28;20984;-89
2022/03/27 12:41:04;;;;;;;21.93;12.70;;;20.90;42.60;;;;;;4967033;28;22040;-86
2022/03/27 12:43:30;;;;;;;25.90;13.53;;;20.90;42.00;;;;;;4958974;28;20276;-81
2022/03/27 12:45:56;;;;;;;25.37;14.17;;;20.90;42.00;;;;;;4957839;28;21300;-83
2022/03/27 12:48:25;;;;;;;22.47;12.57;;;21.00;43.00;;;;;;4955295;28;20255;-85
2022/03/27 12:50:53;;;;;;;18.00;11.97;;;21.00;42.50;;;;;;4957626;28;20439;-85
2022/03/27 12:53:22;;;;;;;18.00;11.57;;;21.20;43.00;;;;;;4986344;28;20459;-86
2022/03/27 12:55:48;;;;;;;18.83;12.40;;;21.50;42.20;;;;;;4949598;28;20439;-87